Fellsmere, Florida
Current Conditions -  °F | °C
As of 11:53 PM on Sunday 19 Oct 2014 (Local Time) from KVRB Reporting Station
Clear Clear  
Wind Chill: 65°   Ceiling: Unl
Heat Index: 65°   Visibility: 9mi
Dew Point: 63°   Wind: 5mph
Humidity: 93%   Direction: 280°W
Pressure: 30.04"   Gusts: NA
Location:  27.77°N, 80.6°W
Report Text: KVRB 200353Z 28004KT 9SM CLR 18/17 A3004 RMK AO2 SLP171 T01830172
Loading
Personal Weather Stations






























Interactive Weather Map New forecast layout! Learn more

10-Day Weather Forecast

Advertisements
Track Severe Weather on mobile